Clearfield, PA

5:23 PM EST on December 07, 2016 (GMT -0500)
Clearfield | | Change Station

Elev 1127 ft 41.02 °N, 78.46 °W | Updated 3 minutes ago

Partly Cloudy
Partly Cloudy
39.2 °F
Feels Like 39 °F
N
2.0
Wind Variable Wind from WSW
Gusts 9.0 mph

Today
High -- | Low -- °F
--% Chance of Precip.
Yesterday
High -- | Low -- °F
Precip. -- in
Pressure 30.05 in
Visibility 10.0 miles
Clouds Few 12000 ft
Windchill 39 °F
Dew Point 27 °F
Humidity 62%
Rainfall 0.05 in
Snow Depth Not available.
7:25 AM 4:45 PM
First Quarter, 56% visible
METAR KFIG 072154Z AUTO 23006KT 10SM FEW120 03/M06 A3001 RMK AO2 SLP174 T00331061
Pressure 30.05 in
Visibility 10.0 miles
Clouds Few 12000 ft
Windchill 39 °F
Dew Point 27 °F
Humidity 62%
Rainfall 0.05 in
Snow Depth Not available.
7:25 AM 4:45 PM
First Quarter, 56% visible
METAR KFIG 072154Z AUTO 23006KT 10SM FEW120 03/M06 A3001 RMK AO2 SLP174 T00331061

10-Day Weather Forecast

Almanac

Astronomy

Dec. 07, 2016 Rise Set
Actual Time
Civil Twilight
Nautical Twilight
Astronomical Twilight
Moon
Length of Visible Light
Length of Day
Tomorrow will be .
, % of the Moon is Illuminated

Today's Extremes

State Highs State Lows

Community

WunderPhotos

Upload Photos

1,956,210 photos uploaded!

WunderBlog® & News

Nearby

Air Quality

  Air Quality AQ Index Pollutant
Not available.

Snow Depth

Station Depth Elevation

Earthquake Activity

City Distance Mag. Time & Date
Minimum magnitude displayed is 2.5.

Coastal Water Temperatures

Place Temperature

Stations

Nearby Weather Stations

Station Location Temp. Windchill Dew Point Humidity Wind Precip. Elev Updated Type
                   

Watches & Warnings

There are currently no watches in effect.